Time;durP1;ratioP1;P1;durP2;ratioP2;P2;SDS_P1;SDS_P2;PMS_P1;PMS_P2;Temp;Humidity;BMP_temperature;BMP_pressure;BME280_temperature;BME280_humidity;BME280_pressure;Samples;Min_cycle;Max_cycle;Signal;HPM_P1;HPM_P2
2023/07/03 00:00:18;;;;;;;18.70;14.40;;;;;;;28.89;47.91;99238.89;109148;1254;60300;-70
2023/07/03 00:02:49;;;;;;;20.00;14.20;;;;;;;29.01;47.60;99240.75;109112;1254;73783;-68
2023/07/03 00:05:17;;;;;;;17.10;13.70;;;;;;;28.97;47.61;99240.52;109132;1254;70892;-68
2023/07/03 00:07:48;;;;;;;17.30;14.00;;;;;;;28.80;48.23;99241.45;108302;1253;73338;-67
2023/07/03 00:10:15;;;;;;;20.60;14.60;;;;;;;28.81;48.29;99243.55;107924;1254;60627;-69
2023/07/03 00:12:44;;;;;;;18.90;12.50;;;;;;;28.60;48.44;99246.41;107920;1254;60916;-69
2023/07/03 00:15:12;;;;;;;15.20;13.30;;;;;;;28.46;48.92;99245.56;107934;1254;74745;-69
2023/07/03 00:17:39;;;;;;;16.70;13.70;;;;;;;28.60;48.61;99244.04;107948;1253;70172;-69
2023/07/03 00:20:11;;;;;;;19.00;14.60;;;;;;;28.57;48.80;99243.58;107855;1253;71570;-69
2023/07/03 00:22:38;;;;;;;14.20;12.30;;;;;;;28.66;48.29;99240.26;107803;1253;60572;-70
2023/07/03 00:25:06;;;;;;;18.00;13.80;;;;;;;28.87;47.82;99243.67;107854;1258;60335;-70
2023/07/03 00:27:34;;;;;;;18.50;13.70;;;;;;;28.81;48.07;99241.55;107799;1258;73817;-68
2023/07/03 00:30:02;;;;;;;20.20;14.70;;;;;;;28.87;47.76;99238.63;107835;1258;68807;-70
2023/07/03 00:32:30;;;;;;;18.00;14.90;;;;;;;28.90;47.79;99248.17;107766;1253;72981;-70
2023/07/03 00:34:57;;;;;;;18.40;14.90;;;;;;;28.72;48.37;99249.71;107836;1253;61656;-69
2023/07/03 00:37:26;;;;;;;20.00;12.80;;;;;;;28.71;48.56;99254.05;107877;1253;60330;-70
2023/07/03 00:39:54;;;;;;;14.90;11.90;;;;;;;28.48;49.39;99257.80;107828;1258;73081;-70
2023/07/03 00:42:23;;;;;;;14.50;10.90;;;;;;;28.40;49.63;99260.96;107778;1260;70216;-69
2023/07/03 00:44:52;;;;;;;14.20;12.10;;;;;;;28.44;49.55;99263.25;107811;1253;72730;-69
2023/07/03 00:47:19;;;;;;;12.60;11.30;;;;;;;28.59;49.23;99269.20;107773;1253;60927;-71
2023/07/03 00:49:47;;;;;;;18.80;11.10;;;;;;;28.71;48.67;99270.40;107835;1256;60440;-69
2023/07/03 00:52:14;;;;;;;14.20;11.30;;;;;;;28.73;48.81;99275.16;107780;1255;73913;-68
2023/07/03 00:54:41;;;;;;;17.10;12.90;;;;;;;28.82;48.57;99279.73;107893;1254;69203;-70
2023/07/03 00:57:13;;;;;;;19.80;13.60;;;;;;;29.00;48.17;99280.25;107801;1255;74825;-70
2023/07/03 00:59:40;;;;;;;13.60;12.10;;;;;;;29.13;48.24;99280.17;107798;1255;63167;-68
2023/07/03 01:02:12;;;;;;;16.00;12.90;;;;;;;29.22;48.10;99284.65;107867;1256;60755;-69
2023/07/03 01:04:49;;;;;;;17.20;13.70;;;;;;;29.31;48.02;99285.05;107835;1255;72219;-68
2023/07/03 01:07:20;;;;;;;18.60;13.70;;;;;;;29.14;48.43;99287.81;107520;1262;69350;-69
2023/07/03 01:09:56;;;;;;;16.60;13.70;;;;;;;29.19;48.52;99282.25;107829;1254;71560;-69
2023/07/03 01:12:24;;;;;;;22.70;14.10;;;;;;;29.04;48.88;99281.39;107759;1256;60513;-68
2023/07/03 01:14:53;;;;;;;16.30;14.60;;;;;;;29.03;48.88;99277.74;108906;1255;61131;-68
2023/07/03 01:17:21;;;;;;;17.90;14.50;;;;;;;29.02;48.82;99278.94;108371;1253;73780;-69
2023/07/03 01:19:48;;;;;;;19.70;13.80;;;;;;;28.91;49.06;99283.85;107635;1253;68734;-68
2023/07/03 01:22:36;;;;;;;15.20;12.10;;;;;;;29.00;48.96;99287.94;107657;1253;72459;-70
2023/07/03 01:25:11;;;;;;;19.00;13.60;;;;;;;29.00;48.22;99292.42;107896;1253;60911;-69
2023/07/03 01:27:40;;;;;;;14.40;11.70;;;;;;;28.98;48.38;99292.72;107785;1253;58842;-68
2023/07/03 01:30:10;;;;;;;14.80;12.70;;;;;;;28.83;48.67;99295.84;107938;1256;71997;-69
2023/07/03 01:32:38;;;;;;;17.20;13.70;;;;;;;28.71;48.78;99295.39;109035;1253;69070;-69
2023/07/03 01:35:08;;;;;;;12.90;11.60;;;;;;;28.58;48.94;99300.77;109071;1256;72506;-68
2023/07/03 01:37:38;;;;;;;18.60;13.60;;;;;;;28.59;48.81;99303.00;109102;1256;60487;-69
2023/07/03 01:40:07;;;;;;;18.30;14.30;;;;;;;28.58;49.19;99305.70;109101;1253;59155;-68
2023/07/03 01:42:37;;;;;;;19.50;14.30;;;;;;;28.57;49.35;99308.52;109059;1253;73891;-68
2023/07/03 01:45:05;;;;;;;18.70;14.40;;;;;;;28.52;49.39;99300.41;109025;1253;69496;-70
2023/07/03 01:47:33;;;;;;;22.70;14.00;;;;;;;28.33;49.70;99304.29;109166;1254;71745;-70
2023/07/03 01:50:00;;;;;;;17.20;13.10;;;;;;;28.39;49.77;99304.80;109133;1253;62283;-70
2023/07/03 01:52:43;;;;;;;15.00;13.40;;;;;;;28.34;49.61;99309.04;109124;1253;60023;-70
2023/07/03 01:55:33;;;;;;;19.50;14.50;;;;;;;28.31;49.90;99304.75;108011;1253;72552;-70
2023/07/03 01:58:36;;;;;;;21.30;14.10;;;;;;;28.29;49.85;99303.29;107868;1253;68886;-68
2023/07/03 02:01:09;;;;;;;15.90;13.20;;;;;;;27.87;50.72;99305.81;108002;1253;71301;-69
2023/07/03 02:03:41;;;;;;;17.10;12.90;;;;;;;27.84;50.71;99311.02;107968;1253;60543;-70
2023/07/03 02:06:22;;;;;;;19.30;14.20;;;;;;;27.81;50.80;99309.02;108696;1252;60516;-69
2023/07/03 02:08:51;;;;;;;18.60;14.00;;;;;;;27.78;50.90;99315.55;109042;1252;72717;-70
2023/07/03 02:11:20;;;;;;;17.50;14.10;;;;;;;27.82;50.70;99319.97;109094;1253;69782;-69
2023/07/03 02:13:50;;;;;;;19.60;14.30;;;;;;;27.83;50.83;99321.48;109057;1252;72654;-69
2023/07/03 02:16:18;;;;;;;17.40;14.40;;;;;;;27.83;50.77;99321.07;109082;1253;61850;-69
2023/07/03 02:18:49;;;;;;;12.90;11.60;;;;;;;27.67;51.30;99321.73;109080;1252;59983;-68
2023/07/03 02:21:16;;;;;;;;;;;;;;;27.51;51.59;99321.70;109135;1253;73845;-69
2023/07/03 02:23:44;;;;;;;15.70;12.70;;;;;;;27.43;51.83;99319.93;109285;1253;69543;-69
2023/07/03 02:26:13;;;;;;;20.90;11.80;;;;;;;27.60;51.68;99324.55;109043;1252;72682;-69
2023/07/03 02:28:43;;;;;;;16.70;12.50;;;;;;;27.59;51.63;99327.23;109288;1253;60379;-70
2023/07/03 02:31:11;;;;;;;16.20;13.40;;;;;;;27.60;51.71;99328.73;109106;1253;60120;-68
2023/07/03 02:33:38;;;;;;;18.20;14.60;;;;;;;27.59;52.06;99328.84;109052;1251;73683;-70
2023/07/03 02:36:06;;;;;;;19.60;13.50;;;;;;;27.54;52.21;99326.60;109147;1253;68811;-69
2023/07/03 02:38:33;;;;;;;16.80;13.00;;;;;;;27.57;52.39;99325.56;109262;1253;71393;-68
2023/07/03 02:41:02;;;;;;;19.20;14.10;;;;;;;27.63;52.23;99329.48;109145;1253;60467;-70
2023/07/03 02:43:33;;;;;;;17.30;13.70;;;;;;;27.63;52.43;99335.44;109177;1253;59511;-70
2023/07/03 02:46:03;;;;;;;19.70;12.70;;;;;;;27.76;52.42;99336.29;109289;1253;73888;-69
2023/07/03 02:48:31;;;;;;;19.90;13.80;;;;;;;27.88;52.10;99336.23;109068;1253;68887;-73
2023/07/03 02:50:58;;;;;;;17.90;13.20;;;;;;;27.92;52.09;99338.19;109021;1253;72729;-70
2023/07/03 02:53:26;;;;;;;21.00;14.40;;;;;;;28.02;51.74;99339.48;109130;1253;61666;-69
2023/07/03 02:55:58;;;;;;;19.00;14.80;;;;;;;28.06;51.75;99341.61;109071;1258;58469;-70
2023/07/03 02:58:26;;;;;;;17.70;13.40;;;;;;;28.11;51.85;99347.22;109069;1252;72696;-69
2023/07/03 03:00:56;;;;;;;12.70;10.70;;;;;;;28.31;51.42;99358.95;109089;1252;70490;-69
2023/07/03 03:03:25;;;;;;;19.30;15.40;;;;;;;28.53;50.98;99363.33;109062;1253;72694;-69
2023/07/03 03:05:52;;;;;;;23.30;16.30;;;;;;;28.88;50.02;99368.51;109033;1260;60613;-70
2023/07/03 03:08:23;;;;;;;17.70;15.10;;;;;;;28.87;50.23;99374.16;109070;1252;59515;-70
2023/07/03 03:10:51;;;;;;;15.50;13.00;;;;;;;28.91;50.37;99371.04;109043;1253;72698;-69
2023/07/03 03:13:18;;;;;;;20.80;15.30;;;;;;;29.08;49.57;99368.46;109125;1254;70276;-69
2023/07/03 03:15:46;;;;;;;19.00;14.50;;;;;;;28.97;49.95;99369.73;109066;1253;74531;-70
2023/07/03 03:18:14;;;;;;;18.30;14.60;;;;;;;29.22;49.45;99363.41;109073;1253;61901;-69
2023/07/03 03:20:43;;;;;;;20.90;15.90;;;;;;;29.32;49.12;99363.86;109053;1260;60002;-69
2023/07/03 03:23:11;;;;;;;17.10;13.80;;;;;;;29.39;49.08;99362.91;108983;1253;72686;-69
2023/07/03 03:25:38;;;;;;;18.80;14.90;;;;;;;29.53;48.72;99361.23;109312;1253;70396;-69
2023/07/03 03:28:06;;;;;;;19.10;15.60;;;;;;;29.43;49.14;99359.95;109046;1256;72710;-69
2023/07/03 03:30:35;;;;;;;16.50;14.50;;;;;;;29.68;48.93;99359.96;108941;1253;59706;-68
2023/07/03 03:33:02;;;;;;;16.80;14.70;;;;;;;29.85;48.25;99363.87;109115;1253;60480;-70
2023/07/03 03:35:30;;;;;;;20.30;14.80;;;;;;;29.91;48.23;99365.52;109141;1258;73915;-70
2023/07/03 03:37:57;;;;;;;20.90;15.50;;;;;;;29.99;47.93;99369.19;109128;1253;70100;-68
2023/07/03 03:40:25;;;;;;;23.80;15.70;;;;;;;30.01;47.95;99371.00;109104;1252;72714;-69
2023/07/03 03:42:52;;;;;;;14.30;12.50;;;;;;;30.07;47.79;99373.34;108112;1253;60822;-69
2023/07/03 03:45:20;;;;;;;18.30;15.40;;;;;;;30.24;47.22;99380.42;109067;1253;58663;-69
2023/07/03 03:47:48;;;;;;;18.60;15.20;;;;;;;30.35;47.00;99388.23;109090;1253;73729;-69
2023/07/03 03:50:16;;;;;;;17.40;14.40;;;;;;;30.50;46.76;99391.46;109059;1253;70013;-71
2023/07/03 03:52:44;;;;;;;16.30;14.10;;;;;;;30.69;46.36;99386.03;109046;1252;72721;-70
2023/07/03 03:55:11;;;;;;;17.30;14.00;;;;;;;30.72;46.31;99387.55;109068;1253;62127;-71
2023/07/03 03:57:39;;;;;;;19.10;15.40;;;;;;;30.74;46.02;99390.77;109133;1253;58742;-68
2023/07/03 04:00:15;;;;;;;16.10;14.40;;;;;;;30.85;45.77;99394.57;109128;1253;73835;-70
2023/07/03 04:02:43;;;;;;;16.50;14.00;;;;;;;31.14;45.37;99392.73;109115;1252;69804;-69
2023/07/03 04:05:11;;;;;;;21.00;15.50;;;;;;;31.03;45.21;99388.83;109129;1253;72528;-70
2023/07/03 04:07:39;;;;;;;24.30;14.70;;;;;;;31.03;45.44;99384.69;109302;1253;60538;-71
2023/07/03 04:10:08;;;;;;;15.90;13.00;;;;;;;30.96;45.71;99386.90;109092;1253;60068;-71
2023/07/03 04:12:35;;;;;;;18.60;14.60;;;;;;;30.86;45.52;99392.27;109130;1253;73890;-72
2023/07/03 04:15:03;;;;;;;17.60;14.60;;;;;;;31.12;45.07;99404.74;109153;1258;69058;-70
2023/07/03 04:17:30;;;;;;;16.70;13.60;;;;;;;31.22;44.79;99414.99;108837;1253;72638;-69
2023/07/03 04:19:58;;;;;;;19.70;13.50;;;;;;;31.15;44.69;99419.27;108429;1255;61452;-69
2023/07/03 04:25:12;;;;;;;15.80;13.60;;;;;;;28.38;50.27;99428.83;104706;1290;600744;-70
2023/07/03 04:27:40;;;;;;;14.70;12.50;;;;;;;29.70;47.39;99424.88;107156;1266;60990;-68
2023/07/03 04:30:07;;;;;;;16.60;12.50;;;;;;;30.26;45.96;99423.60;107146;1266;58895;-70
2023/07/03 04:32:36;;;;;;;20.30;13.70;;;;;;;30.50;45.32;99428.73;107186;1266;71895;-69
2023/07/03 04:35:06;;;;;;;15.10;12.30;;;;;;;30.63;45.09;99434.14;107162;1265;69298;-69
2023/07/03 04:37:34;;;;;;;17.80;13.60;;;;;;;30.76;44.64;99434.42;107066;1265;72720;-68
2023/07/03 04:40:03;;;;;;;15.00;12.40;;;;;;;30.77;44.34;99435.44;107119;1263;61940;-69
2023/07/03 04:42:31;;;;;;;17.70;12.40;;;;;;;30.79;44.23;99433.08;107274;1264;59167;-69
2023/07/03 04:45:01;;;;;;;15.40;12.50;;;;;;;30.90;43.78;99437.79;107219;1263;71211;-70
2023/07/03 04:47:29;;;;;;;15.30;11.70;;;;;;;30.88;43.96;99445.55;107218;1262;69212;-70
2023/07/03 04:49:58;;;;;;;18.80;12.30;;;;;;;30.97;43.85;99456.42;107277;1268;71360;-70
2023/07/03 04:52:27;;;;;;;16.50;12.10;;;;;;;31.12;43.67;99459.64;107322;1262;61705;-70
2023/07/03 04:54:55;;;;;;;15.60;11.70;;;;;;;31.17;43.53;99460.48;107325;1268;60334;-70
2023/07/03 04:57:23;;;;;;;18.20;12.30;;;;;;;31.24;42.96;99460.11;107320;1263;73101;-69
2023/07/03 04:59:50;;;;;;;15.20;11.90;;;;;;;31.25;43.26;99460.85;107287;1263;70114;-71
2023/07/03 05:02:18;;;;;;;16.90;12.30;;;;;;;31.22;43.13;99459.73;107293;1264;72767;-69
2023/07/03 05:04:46;;;;;;;16.60;11.80;;;;;;;31.33;42.85;99464.30;107297;1266;60458;-69
2023/07/03 05:07:18;;;;;;;14.90;11.80;;;;;;;31.30;43.13;99468.69;107199;1263;60116;-69
2023/07/03 05:09:46;;;;;;;15.20;12.30;;;;;;;31.26;42.91;99471.92;108490;1266;73039;-69
2023/07/03 05:12:13;;;;;;;14.60;12.10;;;;;;;31.25;42.93;99479.85;108524;1263;70526;-69
2023/07/03 05:14:40;;;;;;;15.20;11.90;;;;;;;31.42;42.93;99484.12;108504;1264;71853;-69
2023/07/03 05:17:08;;;;;;;16.90;11.50;;;;;;;31.70;42.19;99494.69;108535;1266;60403;-70
2023/07/03 05:19:35;;;;;;;17.60;11.30;;;;;;;31.54;42.15;99495.16;108536;1263;60544;-71
2023/07/03 05:22:02;;;;;;;13.30;10.70;;;;;;;31.57;42.12;99496.20;108542;1263;73026;-69
2023/07/03 05:24:30;;;;;;;17.60;11.20;;;;;;;31.83;41.70;99495.78;108577;1264;72239;-70
2023/07/03 05:26:57;;;;;;;12.70;10.20;;;;;;;31.88;41.30;99492.39;108447;1264;71112;-70
2023/07/03 05:29:25;;;;;;;14.60;11.10;;;;;;;31.97;40.77;99498.80;107220;1266;60488;-70
2023/07/03 05:31:54;;;;;;;18.20;10.80;;;;;;;31.97;40.60;99500.56;107280;1268;59752;-70
2023/07/03 05:34:21;;;;;;;14.40;10.50;;;;;;;32.03;40.55;99501.44;107920;1259;73073;-71
2023/07/03 05:36:49;;;;;;;14.00;11.00;;;;;;;32.25;40.24;99505.63;108008;1254;69810;-70
2023/07/03 05:39:17;;;;;;;14.50;10.40;;;;;;;32.20;40.42;99509.58;109109;1254;72673;-72
2023/07/03 05:41:44;;;;;;;14.30;11.00;;;;;;;32.22;40.32;99510.55;109026;1254;62135;-70
2023/07/03 05:44:11;;;;;;;17.50;10.40;;;;;;;32.46;39.68;99514.84;109090;1254;59490;-69
2023/07/03 05:46:39;;;;;;;13.40;10.00;;;;;;;32.43;39.69;99516.58;109061;1254;71612;-68
2023/07/03 05:49:06;;;;;;;13.30;10.50;;;;;;;32.61;39.31;99516.95;109116;1254;70584;-70
2023/07/03 05:51:34;;;;;;;14.60;10.10;;;;;;;32.80;39.21;99515.41;109142;1254;71365;-69
2023/07/03 05:54:01;;;;;;;12.40;9.20;;;;;;;33.16;38.53;99514.71;109207;1256;60606;-70
2023/07/03 05:56:28;;;;;;;12.20;9.70;;;;;;;33.49;37.97;99514.27;109193;1254;59204;-71
2023/07/03 05:58:56;;;;;;;11.40;9.40;;;;;;;33.80;37.23;99510.78;109244;1253;63046;-70
2023/07/03 06:01:23;;;;;;;12.90;9.70;;;;;;;34.04;36.56;99514.45;109182;1254;61443;-70
2023/07/03 06:03:51;;;;;;;12.30;8.80;;;;;;;34.13;36.25;99518.81;109210;1254;62657;-70
2023/07/03 06:06:18;;;;;;;13.50;9.30;;;;;;;34.73;35.69;99522.67;109168;1254;58052;-70
2023/07/03 06:08:46;;;;;;;12.00;8.60;;;;;;;35.01;35.14;99527.07;109192;1253;60002;-70
2023/07/03 06:11:13;;;;;;;11.70;8.90;;;;;;;35.24;34.86;99527.51;109046;1254;62986;-69
2023/07/03 06:13:41;;;;;;;14.80;9.20;;;;;;;35.62;34.44;99530.34;109194;1254;60234;-70
2023/07/03 06:16:08;;;;;;;10.70;8.80;;;;;;;36.14;33.83;99532.59;109184;1254;62567;-70
2023/07/03 06:18:36;;;;;;;13.20;8.10;;;;;;;36.68;33.14;99535.44;109201;1256;57474;-71
2023/07/03 06:21:03;;;;;;;12.30;8.70;;;;;;;37.12;32.41;99533.98;109168;1254;57330;-70
2023/07/03 06:23:30;;;;;;;14.00;7.30;;;;;;;37.65;31.30;99539.67;109052;1254;63285;-72
2023/07/03 06:25:58;;;;;;;8.70;7.70;;;;;;;38.15;30.34;99540.98;109037;1254;60283;-70
2023/07/03 06:28:25;;;;;;;11.80;7.80;;;;;;;38.61;29.78;99540.40;109051;1254;63284;-72
2023/07/03 06:30:52;;;;;;;10.80;7.40;;;;;;;38.80;29.67;99535.91;109071;1254;57741;-71
2023/07/03 06:33:21;;;;;;;9.40;7.40;;;;;;;39.16;29.08;99534.29;109137;1254;57454;-72
2023/07/03 06:35:50;;;;;;;11.40;7.30;;;;;;;39.36;28.34;99529.46;108589;1254;62880;-71
2023/07/03 06:38:18;;;;;;;11.10;6.50;;;;;;;39.74;27.81;99528.20;107807;1254;61546;-70
2023/07/03 06:40:57;;;;;;;8.00;6.10;;;;;;;39.84;26.91;99527.74;107821;1254;64356;-69
2023/07/03 06:43:25;;;;;;;7.30;5.90;;;;;;;39.87;27.19;99532.40;107824;1256;59421;-69
2023/07/03 06:45:52;;;;;;;9.10;6.00;;;;;;;39.96;26.49;99534.73;109111;1254;57349;-70
2023/07/03 06:48:24;;;;;;;7.50;6.60;;;;;;;40.05;26.06;99535.23;109078;1254;64079;-70
2023/07/03 06:51:01;;;;;;;10.00;6.20;;;;;;;39.78;26.43;99536.77;109166;1254;60282;-70
2023/07/03 06:53:28;;;;;;;7.40;5.90;;;;;;;39.84;26.47;99543.23;109086;1254;62838;-70
2023/07/03 06:55:59;;;;;;;8.00;6.60;;;;;;;39.95;26.59;99548.23;107897;1254;59565;-70
2023/07/03 06:58:27;;;;;;;10.50;6.50;;;;;;;40.16;26.50;99550.04;109174;1254;57522;-69
2023/07/03 07:00:54;;;;;;;10.40;6.20;;;;;;;40.35;26.36;99552.37;109172;1253;64252;-70
2023/07/03 07:06:25;;;;;;;9.80;7.10;;;;;;;38.37;28.35;99556.02;107771;1272;604712;-96
2023/07/03 07:09:28;;;;;;;11.00;6.60;;;;;;;39.84;27.06;99562.80;108843;1259;59505;-96
2023/07/03 07:12:22;;;;;;;10.90;7.60;;;;;;;39.81;26.98;99556.88;108805;1260;57059;-95
2023/07/03 07:15:18;;;;;;;8.10;6.70;;;;;;;39.85;27.00;99567.50;108836;1260;63312;-95
2023/07/03 07:19:08;;;;;;;8.70;6.60;;;;;;;39.78;26.47;99566.15;103102;1258;7798804;-95
2023/07/03 07:22:18;;;;;;;8.00;6.00;;;;;;;39.69;26.56;99567.95;108848;1255;80040;-85
2023/07/03 07:24:45;;;;;;;6.00;4.50;;;;;;;39.63;26.39;99571.59;107927;1259;59157;-85
2023/07/03 07:27:12;;;;;;;9.80;5.20;;;;;;;39.48;25.78;99574.66;108317;1259;63581;-85
2023/07/03 07:29:39;;;;;;;8.10;5.60;;;;;;;39.43;25.70;99572.17;108392;1258;60370;-87
2023/07/03 07:32:09;;;;;;;6.30;5.20;;;;;;;39.10;26.47;99579.11;108511;1262;64002;-85
2023/07/03 07:34:39;;;;;;;8.00;5.80;;;;;;;38.82;26.67;99585.58;108397;1259;59468;-84
2023/07/03 07:37:06;;;;;;;12.00;6.30;;;;;;;38.63;26.97;99589.34;107763;1259;59634;-85
2023/07/03 07:39:32;;;;;;;10.30;6.40;;;;;;;38.60;27.21;99586.17;107744;1258;63045;-87
2023/07/03 07:41:59;;;;;;;7.30;5.90;;;;;;;38.37;27.22;99595.06;107782;1259;70243;-85
2023/07/03 07:44:26;;;;;;;11.20;6.10;;;;;;;38.20;27.23;99595.27;107970;1258;72549;-84
2023/07/03 07:46:53;;;;;;;7.80;5.70;;;;;;;38.37;27.26;99592.64;108300;1259;57999;-85
2023/07/03 07:49:23;;;;;;;8.60;6.10;;;;;;;38.93;26.95;99593.09;108377;1259;58086;-85
2023/07/03 07:51:50;;;;;;;10.70;5.90;;;;;;;39.58;26.06;99596.95;108123;1259;64585;-86
2023/07/03 07:54:16;;;;;;;7.60;5.60;;;;;;;39.81;25.50;99599.42;107795;1259;60382;-84
2023/07/03 07:56:43;;;;;;;7.00;5.50;;;;;;;40.00;25.26;99600.15;107673;1260;63161;-86
2023/07/03 07:59:10;;;;;;;7.70;6.00;;;;;;;40.13;25.30;99598.76;107669;1259;59537;-84
2023/07/03 08:01:37;;;;;;;7.70;5.70;;;;;;;40.69;24.99;99599.53;107681;1259;59199;-85
2023/07/03 08:04:04;;;;;;;6.40;5.30;;;;;;;40.80;24.62;99604.02;107556;1260;63063;-85
2023/07/03 08:06:31;;;;;;;9.70;6.40;;;;;;;41.04;24.47;99605.16;107531;1264;62387;-86
2023/07/03 08:08:58;;;;;;;8.10;5.90;;;;;;;41.55;24.30;99602.90;108586;1260;64502;-85
2023/07/03 08:11:28;;;;;;;6.60;5.90;;;;;;;41.95;23.68;99606.26;108695;1260;57817;-86
2023/07/03 08:13:55;;;;;;;8.90;5.70;;;;;;;42.11;23.20;99607.89;107690;1260;59569;-82
2023/07/03 08:16:22;;;;;;;9.30;6.00;;;;;;;41.97;23.40;99608.42;107746;1260;64302;-85
2023/07/03 08:18:49;;;;;;;7.60;5.90;;;;;;;42.08;23.72;99609.65;107614;1264;61804;-84
2023/07/03 08:21:16;;;;;;;9.70;5.80;;;;;;;42.17;23.45;99608.14;107491;1260;63912;-85
2023/07/03 08:23:43;;;;;;;7.80;6.00;;;;;;;42.24;23.29;99606.20;107634;1260;59556;-85
2023/07/03 08:26:21;;;;;;;5.90;4.90;;;;;;;42.36;23.08;99611.19;107486;1261;58634;-85
2023/07/03 08:28:48;;;;;;;7.60;5.30;;;;;;;42.48;22.37;99612.23;107589;1260;62857;-86
2023/07/03 08:31:14;;;;;;;6.30;4.60;;;;;;;42.52;22.52;99616.14;107645;1259;61794;-86
2023/07/03 08:33:41;;;;;;;7.60;5.20;;;;;;;42.51;22.49;99616.91;107711;1259;63832;-85
2023/07/03 08:36:08;;;;;;;7.60;5.80;;;;;;;42.50;22.60;99624.34;107655;1259;59510;-86
2023/07/03 08:38:38;;;;;;;8.50;6.60;;;;;;;42.51;22.91;99624.16;107774;1259;59696;-86
2023/07/03 08:41:05;;;;;;;10.00;6.50;;;;;;;42.26;23.41;99625.46;107741;1259;64306;-87
2023/07/03 08:43:36;;;;;;;8.30;5.30;;;;;;;42.18;23.65;99627.79;107697;1260;61572;-84
2023/07/03 08:46:02;;;;;;;;;;;;;;;42.04;22.92;99629.39;107606;1259;62460;-86
2023/07/03 08:48:29;;;;;;;6.50;5.50;;;;;;;41.79;23.08;99629.04;107786;1257;59624;-87
2023/07/03 08:50:58;;;;;;;7.20;5.40;;;;;;;42.13;22.78;99630.02;107797;1257;59387;-86
2023/07/03 08:53:33;;;;;;;5.70;5.10;;;;;;;42.21;22.42;99631.00;107835;1257;64289;-86
2023/07/03 08:56:00;;;;;;;10.20;4.40;;;;;;;42.19;22.07;99630.27;107892;1257;60218;-86
2023/07/03 08:58:28;;;;;;;6.40;4.20;;;;;;;42.19;21.95;99633.60;108165;1257;63922;-86
2023/07/03 09:01:12;;;;;;;3.80;3.20;;;;;;;42.30;21.38;99639.67;107959;1257;59514;-86
2023/07/03 09:04:18;;;;;;;7.50;3.30;;;;;;;42.37;20.71;99637.14;107857;1257;59474;-85
2023/07/03 09:06:53;;;;;;;5.90;2.90;;;;;;;42.66;20.17;99639.41;107815;1257;64941;-86
2023/07/03 09:09:43;;;;;;;6.20;2.80;;;;;;;43.06;19.62;99641.17;107755;1257;61810;-86
2023/07/03 09:12:20;;;;;;;4.50;3.10;;;;;;;43.13;19.72;99641.20;108116;1257;63446;-86
2023/07/03 09:15:13;;;;;;;5.60;2.80;;;;;;;43.02;19.28;99640.48;107757;1257;59621;-86
2023/07/03 09:17:40;;;;;;;9.80;3.90;;;;;;;42.83;19.23;99641.70;107949;1257;59647;-86
2023/07/03 09:20:10;;;;;;;8.00;3.00;;;;;;;42.72;19.92;99639.34;108032;1257;63250;-86
2023/07/03 09:22:55;;;;;;;3.90;3.20;;;;;;;42.48;20.35;99638.13;109089;1257;60336;-85
2023/07/03 09:25:41;;;;;;;4.10;3.30;;;;;;;42.59;20.35;99638.48;108419;1261;62709;-85
2023/07/03 09:28:09;;;;;;;3.80;2.80;;;;;;;42.96;20.16;99636.73;107568;1259;59505;-86
2023/07/03 09:30:37;;;;;;;4.80;3.10;;;;;;;43.15;19.31;99636.10;107635;1260;59307;-86
2023/07/03 09:33:04;;;;;;;3.50;2.70;;;;;;;42.87;18.83;99637.14;107619;1260;64296;-87
2023/07/03 09:35:41;;;;;;;3.80;2.70;;;;;;;42.97;19.03;99639.48;107681;1260;61754;-87
2023/07/03 09:38:14;;;;;;;3.40;2.60;;;;;;;43.09;18.53;99639.11;107655;1260;65357;-85
2023/07/03 09:40:43;;;;;;;5.50;2.80;;;;;;;43.09;18.58;99642.15;107692;1260;59186;-85
2023/07/03 09:43:24;;;;;;;4.50;2.70;;;;;;;43.31;18.32;99643.29;107714;1259;59385;-86
2023/07/03 09:46:00;;;;;;;3.50;2.60;;;;;;;43.42;18.66;99645.17;107722;1260;64496;-87
2023/07/03 09:48:30;;;;;;;3.90;2.80;;;;;;;43.70;18.35;99643.46;107859;1257;61553;-86
2023/07/03 09:50:57;;;;;;;4.00;2.60;;;;;;;43.74;18.66;99650.21;108123;1254;64055;-86
2023/07/03 09:53:38;;;;;;;4.40;3.00;;;;;;;43.74;18.57;99649.27;108198;1254;59941;-86
2023/07/03 09:56:15;;;;;;;4.30;3.30;;;;;;;43.20;18.82;99647.55;108410;1254;58697;-86
2023/07/03 09:58:48;;;;;;;4.70;3.20;;;;;;;43.28;19.05;99643.98;107925;1255;64519;-85
2023/07/03 10:01:17;;;;;;;4.60;3.60;;;;;;;43.20;19.01;99642.68;107970;1255;61948;-85
2023/07/03 10:03:47;;;;;;;6.60;2.90;;;;;;;43.07;19.16;99642.29;107925;1255;63863;-86
2023/07/03 10:06:18;;;;;;;4.60;3.40;;;;;;;43.07;19.16;99640.95;108001;1255;59612;-83
2023/07/03 10:08:50;;;;;;;4.50;3.20;;;;;;;42.98;19.66;99637.61;108024;1254;59610;-86
2023/07/03 10:11:43;;;;;;;;;;;;;;;43.16;19.35;99637.21;108069;1255;64274;-86
2023/07/03 10:14:14;;;;;;;5.10;3.10;;;;;;;43.36;19.19;99635.51;108027;1255;60410;-86
2023/07/03 10:16:41;;;;;;;5.10;3.30;;;;;;;43.17;19.12;99636.48;108003;1255;62680;-86
2023/07/03 10:19:08;;;;;;;6.40;3.10;;;;;;;43.23;19.37;99631.08;108128;1255;57820;-85
2023/07/03 10:21:36;;;;;;;7.90;3.30;;;;;;;43.46;19.13;99633.34;108040;1256;59181;-86
2023/07/03 10:24:03;;;;;;;5.30;3.60;;;;;;;43.62;18.92;99631.93;108014;1255;64195;-85
2023/07/03 10:26:33;;;;;;;7.90;3.50;;;;;;;43.31;18.87;99631.83;107994;1258;60149;-86
2023/07/03 10:29:19;;;;;;;5.50;3.70;;;;;;;43.09;19.88;99633.85;108097;1255;64025;-85
2023/07/03 10:31:51;;;;;;;7.10;3.60;;;;;;;43.20;19.91;99638.75;108586;1260;59159;-85
2023/07/03 10:34:40;;;;;;;6.70;3.50;;;;;;;43.46;19.44;99638.73;109177;1255;58943;-87
2023/07/03 10:37:08;;;;;;;6.20;3.70;;;;;;;43.79;19.12;99631.81;109044;1255;63046;-86
2023/07/03 10:39:52;;;;;;;7.10;3.20;;;;;;;44.06;18.92;99629.07;109025;1255;60884;-86
2023/07/03 10:42:26;;;;;;;5.40;4.10;;;;;;;43.87;19.13;99633.30;109059;1255;62918;-86
2023/07/03 10:44:56;;;;;;;8.20;3.80;;;;;;;43.47;19.15;99637.66;108107;1255;59605;-85
2023/07/03 10:47:50;;;;;;;7.50;3.60;;;;;;;43.11;19.55;99636.66;107987;1257;59253;-86
2023/07/03 10:50:19;;;;;;;6.50;3.20;;;;;;;43.02;19.66;99638.59;108143;1257;64265;-84
2023/07/03 10:52:56;;;;;;;4.00;3.20;;;;;;;42.85;19.52;99638.58;108630;1260;60459;-86
2023/07/03 10:55:29;;;;;;;6.60;3.30;;;;;;;42.17;20.22;99640.17;108108;1257;62476;-87
2023/07/03 10:58:03;;;;;;;7.00;4.00;;;;;;;41.68;20.48;99636.03;107827;1257;59659;-86
2023/07/03 11:00:56;;;;;;;4.30;2.90;;;;;;;41.42;21.19;99634.09;107617;1258;59506;-87
2023/07/03 11:03:41;;;;;;;8.00;3.10;;;;;;;41.15;21.05;99633.28;107529;1256;64382;-88
2023/07/03 11:06:42;;;;;;;5.80;3.20;;;;;;;40.94;21.04;99632.45;107458;1256;62273;-87
2023/07/03 11:09:14;;;;;;;5.60;3.80;;;;;;;41.16;21.00;99630.40;108139;1256;63348;-87
2023/07/03 11:11:50;;;;;;;7.30;3.90;;;;;;;41.67;20.94;99629.63;108005;1257;59546;-87
2023/07/03 11:14:35;;;;;;;5.30;3.90;;;;;;;41.97;20.42;99628.27;107834;1257;59441;-86
2023/07/03 11:17:05;;;;;;;7.10;3.80;;;;;;;42.33;20.50;99628.73;107976;1257;63218;-87
2023/07/03 11:20:08;;;;;;;5.90;4.20;;;;;;;42.61;20.37;99635.05;107783;1256;61724;-86
2023/07/03 11:22:57;;;;;;;5.50;3.90;;;;;;;42.42;20.19;99633.79;107708;1257;73977;-87
2023/07/03 11:25:57;;;;;;;7.70;4.20;;;;;;;42.13;20.79;99628.84;107700;1257;60341;-84
2023/07/03 11:28:37;;;;;;;4.50;4.00;;;;;;;42.27;20.47;99627.73;108938;1257;58338;-87
2023/07/03 11:31:04;;;;;;;9.90;4.10;;;;;;;41.76;20.54;99624.60;108153;1258;65132;-86
2023/07/03 11:33:33;;;;;;;5.10;4.30;;;;;;;41.58;20.91;99620.59;107559;1257;61466;-87
2023/07/03 11:36:04;;;;;;;6.10;4.30;;;;;;;41.57;21.34;99622.59;108866;1256;64207;-87
2023/07/03 11:38:31;;;;;;;7.40;4.10;;;;;;;41.42;21.27;99618.78;109003;1257;58448;-85
2023/07/03 11:41:07;;;;;;;4.80;3.80;;;;;;;41.45;20.77;99620.84;108339;1257;59249;-86